Time;durP1;ratioP1;P1;durP2;ratioP2;P2;SDS_P1;SDS_P2;PMS_P1;PMS_P2;Temp;Humidity;BMP_temperature;BMP_pressure;BME280_temperature;BME280_humidity;BME280_pressure;Samples;Min_cycle;Max_cycle;Signal;HPM_P1;HPM_P2
2021/01/03 00:00:24;;;;;;;160.48;76.40;;;;;;;-0.73;100.00;98822.34;2105450;28;20678;-78
2021/01/03 00:01:25;;;;;;;160.70;76.72;;;;;;;-0.91;100.00;98794.44;2105544;28;20735;-78
2021/01/03 00:02:27;;;;;;;166.95;77.75;;;;;;;-0.77;100.00;98816.78;2105178;28;20221;-78
2021/01/03 00:03:28;;;;;;;162.85;79.35;;;;;;;-0.77;100.00;98819.41;2105296;28;20281;-78
2021/01/03 00:04:30;;;;;;;154.85;78.25;;;;;;;-0.73;100.00;98825.75;2105069;28;20217;-78
2021/01/03 00:05:33;;;;;;;153.07;74.97;;;;;;;-0.76;100.00;98814.94;2105283;28;20221;-80
2021/01/03 00:06:34;;;;;;;156.85;73.55;;;;;;;-0.76;100.00;98812.34;2098026;28;20222;-78
2021/01/03 00:07:35;;;;;;;155.70;78.33;;;;;;;-0.74;100.00;98813.69;2096797;28;20236;-79
2021/01/03 00:08:36;;;;;;;162.65;76.72;;;;;;;-0.70;100.00;98811.41;2088514;28;20229;-77
2021/01/03 00:09:37;;;;;;;168.10;75.97;;;;;;;-0.79;100.00;98800.47;2097008;28;20272;-78
2021/01/03 00:10:38;;;;;;;152.95;72.68;;;;;;;-0.73;100.00;98810.03;2099022;28;20275;-78
2021/01/03 00:11:39;;;;;;;167.13;77.17;;;;;;;-0.76;100.00;98797.41;2094861;28;20219;-79
2021/01/03 00:12:40;;;;;;;154.25;75.47;;;;;;;-0.79;100.00;98795.22;2088398;28;20630;-78
2021/01/03 00:13:42;;;;;;;166.35;76.18;;;;;;;-0.81;100.00;98786.00;2096925;28;20230;-78
2021/01/03 00:14:43;;;;;;;150.35;76.00;;;;;;;-0.70;100.00;98808.78;2096361;28;20210;-78
2021/01/03 00:15:44;;;;;;;144.83;69.13;;;;;;;-0.73;100.00;98810.03;2088371;28;20229;-78
2021/01/03 00:16:46;;;;;;;157.93;76.28;;;;;;;-0.75;100.00;98808.69;2088330;28;20305;-78
2021/01/03 00:17:48;;;;;;;153.13;71.68;;;;;;;-0.78;100.00;98807.31;2088156;28;20309;-78
2021/01/03 00:18:49;;;;;;;149.30;71.40;;;;;;;-0.81;100.00;98797.28;2104301;28;20217;-78
2021/01/03 00:19:50;;;;;;;148.90;71.50;;;;;;;-0.90;100.00;98781.13;2088877;28;20226;-78
2021/01/03 00:20:51;;;;;;;153.93;75.18;;;;;;;-0.84;100.00;98796.97;2096814;28;20225;-78
2021/01/03 00:21:52;;;;;;;146.70;73.17;;;;;;;-0.85;100.00;98796.16;2104828;28;20221;-77
2021/01/03 00:22:53;;;;;;;152.27;74.43;;;;;;;-0.81;100.00;98805.16;2096715;28;20236;-78
2021/01/03 00:23:54;;;;;;;151.47;74.83;;;;;;;-0.85;100.00;98801.41;2105180;28;20228;-79
2021/01/03 00:24:55;;;;;;;156.95;75.72;;;;;;;-0.82;100.00;98805.38;2105180;28;20312;-78
2021/01/03 00:25:56;;;;;;;155.27;73.70;;;;;;;-0.82;100.00;98798.31;2105127;28;20229;-78
2021/01/03 00:26:57;;;;;;;167.60;75.38;;;;;;;-0.93;100.00;98786.81;2105052;28;20236;-77
2021/01/03 00:27:58;;;;;;;160.23;77.03;;;;;;;-0.81;100.00;98805.16;2105424;28;20225;-78
2021/01/03 00:28:59;;;;;;;151.85;75.55;;;;;;;-0.80;100.00;98798.09;2105871;28;20576;-78
2021/01/03 00:30:00;;;;;;;153.03;76.03;;;;;;;-0.88;100.00;98788.75;2105359;28;20272;-78
2021/01/03 00:31:01;;;;;;;156.45;79.53;;;;;;;-0.86;100.00;98799.81;2105019;28;20228;-78
2021/01/03 00:32:02;;;;;;;159.30;75.07;;;;;;;-0.80;100.00;98803.31;2105123;28;20237;-78
2021/01/03 00:33:04;;;;;;;150.27;76.38;;;;;;;-0.79;100.00;98805.72;2096869;28;20464;-78
2021/01/03 00:34:06;;;;;;;165.57;75.72;;;;;;;-0.80;100.00;98808.56;2096617;28;20295;-78
2021/01/03 00:35:10;;;;;;;170.23;77.93;;;;;;;-0.77;100.00;98801.06;2090187;28;20254;-78
2021/01/03 00:36:12;;;;;;;164.85;76.35;;;;;;;-0.77;100.00;98813.38;2088226;28;20226;-78
2021/01/03 00:37:12;;;;;;;157.23;77.00;;;;;;;-0.79;100.00;98803.09;2103629;28;20282;-79
2021/01/03 00:38:15;;;;;;;161.33;78.57;;;;;;;-0.83;100.00;98793.31;2104772;28;20217;-78
2021/01/03 00:39:16;;;;;;;156.75;72.47;;;;;;;-0.76;100.00;98804.47;2105083;28;20327;-78
2021/01/03 00:40:19;;;;;;;172.67;79.30;;;;;;;-0.78;100.00;98796.84;2105274;28;20221;-78
2021/01/03 00:41:20;;;;;;;158.85;76.22;;;;;;;-0.83;100.00;98796.72;2105150;28;20961;-78
2021/01/03 00:42:21;;;;;;;152.43;74.63;;;;;;;-0.78;100.00;98802.09;2104769;28;20573;-78
2021/01/03 00:43:23;;;;;;;162.55;76.20;;;;;;;-0.73;100.00;98809.25;2104414;28;20246;-78
2021/01/03 00:44:24;;;;;;;149.43;74.53;;;;;;;-0.82;100.00;98800.94;2112825;28;20236;-79
2021/01/03 00:45:25;;;;;;;148.77;72.25;;;;;;;-0.71;100.00;98817.66;2105046;28;20217;-77
2021/01/03 00:46:26;;;;;;;150.37;70.77;;;;;;;-0.82;100.00;98806.19;2089126;28;20222;-78
2021/01/03 00:47:27;;;;;;;151.57;72.13;;;;;;;-0.84;100.00;98797.75;2088152;28;20453;-78
2021/01/03 00:48:29;;;;;;;156.57;74.57;;;;;;;-0.77;100.00;98819.41;2103710;28;20228;-77
2021/01/03 00:49:30;;;;;;;147.80;74.75;;;;;;;-0.80;100.00;98813.78;2113142;28;20222;-78
2021/01/03 00:50:32;;;;;;;139.80;70.80;;;;;;;-0.83;100.00;98822.91;2113264;28;20270;-78
2021/01/03 00:51:33;;;;;;;139.60;70.22;;;;;;;-1.00;100.00;98804.47;2104782;28;20270;-77
2021/01/03 00:52:34;;;;;;;150.10;71.77;;;;;;;-0.91;100.00;98810.97;2096346;28;20222;-77
2021/01/03 00:53:35;;;;;;;142.48;68.30;;;;;;;-0.90;100.00;98817.78;2096406;28;20217;-77
2021/01/03 00:54:36;;;;;;;145.73;70.73;;;;;;;-0.94;100.00;98814.03;2096141;28;20222;-77
2021/01/03 00:55:37;;;;;;;139.27;71.07;;;;;;;-0.98;100.00;98806.84;2087535;28;20227;-77
2021/01/03 00:56:38;;;;;;;137.33;67.40;;;;;;;-0.85;100.00;98822.34;2088837;28;20231;-79
2021/01/03 00:57:39;;;;;;;152.43;70.43;;;;;;;-0.91;100.00;98812.78;2091820;28;20240;-78
2021/01/03 00:58:40;;;;;;;127.50;65.77;;;;;;;-0.99;100.00;98803.44;2105012;28;20245;-77
2021/01/03 00:59:41;;;;;;;138.43;67.28;;;;;;;-1.01;100.00;98800.25;2094953;28;20293;-77
2021/01/03 01:00:42;;;;;;;140.43;66.90;;;;;;;-1.04;100.00;98797.28;2104914;28;20222;-78
2021/01/03 01:01:43;;;;;;;151.73;73.55;;;;;;;-0.98;100.00;98806.84;2105708;28;20296;-77
2021/01/03 01:02:44;;;;;;;139.20;71.17;;;;;;;-1.07;100.00;98792.50;2105485;28;20224;-77
2021/01/03 01:03:47;;;;;;;145.57;73.25;;;;;;;-1.08;100.00;98794.31;2105403;28;20271;-78
2021/01/03 01:04:48;;;;;;;143.75;72.80;;;;;;;-1.02;100.00;98795.25;2105785;28;20661;-78
2021/01/03 01:05:49;;;;;;;152.35;73.80;;;;;;;-1.00;100.00;98796.59;2104538;28;20300;-79
2021/01/03 01:06:50;;;;;;;150.02;71.90;;;;;;;-1.04;100.00;98792.88;2096085;28;20262;-78
2021/01/03 01:07:52;;;;;;;148.60;73.13;;;;;;;-0.98;100.00;98804.22;2096286;28;20627;-79
2021/01/03 01:08:53;;;;;;;146.10;70.88;;;;;;;-0.97;100.00;98795.34;2091749;28;20223;-78
2021/01/03 01:09:54;;;;;;;155.43;75.80;;;;;;;-0.97;100.00;98790.91;2089954;28;20239;-79
2021/01/03 01:10:55;;;;;;;160.33;77.67;;;;;;;-0.98;100.00;98788.53;2096466;28;20225;-78
2021/01/03 01:11:55;;;;;;;150.82;73.88;;;;;;;-0.94;100.00;98789.69;2096083;28;20297;-78
2021/01/03 01:12:59;;;;;;;153.93;75.57;;;;;;;-0.93;100.00;98791.28;2087445;28;20329;-79
2021/01/03 01:13:59;;;;;;;155.77;75.55;;;;;;;-1.07;100.00;98768.94;2096240;28;20233;-79
2021/01/03 01:15:01;;;;;;;150.97;73.03;;;;;;;-0.95;100.00;98788.09;2097119;28;20222;-79
2021/01/03 01:16:02;;;;;;;154.70;76.35;;;;;;;-0.95;100.00;98790.72;2096067;28;20221;-79
2021/01/03 01:17:07;;;;;;;153.25;75.57;;;;;;;-1.00;100.00;98782.72;2087680;28;20292;-79
2021/01/03 01:18:08;;;;;;;156.85;77.57;;;;;;;-1.01;100.00;98775.91;2088028;28;20231;-79
2021/01/03 01:19:10;;;;;;;156.52;78.90;;;;;;;-0.92;100.00;98785.78;2087878;28;20254;-78
2021/01/03 01:20:11;;;;;;;158.90;74.97;;;;;;;-0.90;100.00;98780.31;2087853;28;20233;-78
2021/01/03 01:21:13;;;;;;;151.02;74.90;;;;;;;-0.87;100.00;98777.25;2096234;28;20230;-80
2021/01/03 01:22:14;;;;;;;148.77;72.40;;;;;;;-0.88;100.00;98783.50;2096302;28;20820;-78
2021/01/03 01:23:15;;;;;;;156.03;74.37;;;;;;;-0.95;100.00;98767.13;2096264;28;20685;-79
2021/01/03 01:24:16;;;;;;;159.00;75.70;;;;;;;-0.94;100.00;98771.34;2095266;28;20214;-79
2021/01/03 01:25:19;;;;;;;156.23;75.07;;;;;;;-0.93;100.00;98768.50;2096210;28;20225;-79
2021/01/03 01:26:21;;;;;;;147.85;76.28;;;;;;;-0.92;100.00;98771.91;2096233;28;20272;-80
2021/01/03 01:27:22;;;;;;;151.60;75.40;;;;;;;-0.95;100.00;98761.91;2104475;28;20615;-78
2021/01/03 01:28:23;;;;;;;154.18;73.40;;;;;;;-0.93;100.00;98771.13;2104736;28;20632;-78
2021/01/03 01:29:24;;;;;;;151.00;73.67;;;;;;;-1.01;100.00;98755.75;2104820;28;20338;-79
2021/01/03 01:30:27;;;;;;;152.88;71.70;;;;;;;-0.94;100.00;98755.63;2106377;28;20829;-79
2021/01/03 01:31:28;;;;;;;156.43;75.25;;;;;;;-1.05;100.00;98740.72;2104247;28;20221;-79
2021/01/03 01:32:29;;;;;;;147.25;71.53;;;;;;;-0.94;100.00;98755.63;2096146;28;20304;-79
2021/01/03 01:33:30;;;;;;;150.60;73.93;;;;;;;-0.96;100.00;98758.47;2104987;28;20228;-79
2021/01/03 01:34:32;;;;;;;148.20;74.28;;;;;;;-0.99;100.00;98753.69;2105425;28;20217;-79
2021/01/03 01:35:34;;;;;;;140.10;70.53;;;;;;;-1.03;100.00;98749.94;2105413;28;20221;-79
2021/01/03 01:36:35;;;;;;;151.38;73.15;;;;;;;-1.12;100.00;98737.44;2104545;28;20221;-79
2021/01/03 01:37:36;;;;;;;142.27;70.93;;;;;;;-1.00;100.00;98749.47;2104801;28;20295;-78
2021/01/03 01:38:37;;;;;;;139.55;70.03;;;;;;;-1.03;100.00;98751.78;2104489;28;20593;-78
2021/01/03 01:39:38;;;;;;;134.97;69.53;;;;;;;-1.07;100.00;98745.38;2095790;28;20261;-80
2021/01/03 01:40:40;;;;;;;146.98;71.40;;;;;;;-1.07;100.00;98740.16;2094322;28;20224;-78
2021/01/03 01:41:41;;;;;;;143.73;69.22;;;;;;;-1.14;100.00;98735.81;2104250;28;20229;-78
2021/01/03 01:42:42;;;;;;;144.02;71.68;;;;;;;-1.18;100.00;98726.84;2096030;28;20672;-79
2021/01/03 01:43:43;;;;;;;144.13;71.20;;;;;;;-1.14;100.00;98745.50;2094404;28;20580;-78
2021/01/03 01:44:44;;;;;;;148.75;71.22;;;;;;;-1.15;100.00;98749.94;2104643;28;20278;-78
2021/01/03 01:45:47;;;;;;;148.80;73.07;;;;;;;-1.15;100.00;98755.16;2105380;28;20274;-78
2021/01/03 01:46:51;;;;;;;151.13;73.25;;;;;;;-1.14;100.00;98755.97;2104950;28;20794;-78
2021/01/03 01:47:56;;;;;;;147.73;71.50;;;;;;;-1.19;100.00;98753.25;2104517;28;20225;-78
2021/01/03 01:48:57;;;;;;;145.05;70.18;;;;;;;-1.26;100.00;98748.13;2104480;28;20232;-78
2021/01/03 01:50:01;;;;;;;147.57;72.00;;;;;;;-1.22;100.00;98754.47;2104518;28;20232;-77
2021/01/03 01:51:05;;;;;;;143.20;67.65;;;;;;;-1.31;100.00;98745.38;2096584;28;20290;-77
2021/01/03 01:52:06;;;;;;;141.23;70.28;;;;;;;-1.21;100.00;98763.16;2088317;28;20225;-78
2021/01/03 01:53:16;;;;;;;146.50;72.78;;;;;;;-1.23;100.00;98765.16;2095774;28;20222;-78
2021/01/03 01:54:20;;;;;;;141.38;71.05;;;;;;;-1.21;100.00;98760.53;2096866;28;20302;-78
2021/01/03 01:55:23;;;;;;;144.75;69.10;;;;;;;-1.10;100.00;98772.81;2095997;28;20635;-78
2021/01/03 01:56:31;;;;;;;150.70;73.20;;;;;;;-1.16;100.00;98756.19;2104335;28;20792;-78
2021/01/03 01:57:36;;;;;;;153.02;72.55;;;;;;;-1.05;100.00;98769.50;2105294;28;20221;-79
2021/01/03 01:58:44;;;;;;;157.63;74.00;;;;;;;-1.16;100.00;98742.31;2104873;28;20389;-78
2021/01/03 01:59:49;;;;;;;151.95;73.82;;;;;;;-1.09;100.00;98747.44;2104561;28;20213;-79
2021/01/03 02:00:55;;;;;;;167.60;77.45;;;;;;;-1.06;100.00;98752.22;2096453;28;20222;-78
2021/01/03 02:02:02;;;;;;;157.13;73.70;;;;;;;-0.97;100.00;98764.72;2088304;28;20305;-78
2021/01/03 02:03:08;;;;;;;172.27;76.70;;;;;;;-0.97;100.00;98750.84;2093579;28;20305;-79
2021/01/03 02:04:15;;;;;;;157.95;73.57;;;;;;;-0.85;100.00;98759.50;2095673;28;20278;-78
2021/01/03 02:05:20;;;;;;;154.10;76.13;;;;;;;-0.88;100.00;98765.19;2097231;28;20248;-78
2021/01/03 02:06:25;;;;;;;154.52;77.07;;;;;;;-0.91;100.00;98755.97;2096838;28;20225;-79
2021/01/03 02:07:29;;;;;;;162.80;75.13;;;;;;;-0.89;100.00;98756.53;2096559;28;20351;-79
2021/01/03 02:08:32;;;;;;;156.50;76.60;;;;;;;-0.89;100.00;98740.03;2096813;28;20226;-78
2021/01/03 02:09:41;;;;;;;157.02;75.05;;;;;;;-0.97;100.00;98729.91;2097044;28;20663;-78
2021/01/03 02:10:44;;;;;;;152.52;76.45;;;;;;;-1.01;100.00;98734.81;2096661;28;20229;-78
2021/01/03 02:11:45;;;;;;;155.20;76.63;;;;;;;-0.93;100.00;98752.00;2087784;28;20587;-78
2021/01/03 02:12:49;;;;;;;155.57;75.13;;;;;;;-0.98;100.00;98738.78;2087426;28;20230;-78
2021/01/03 02:13:52;;;;;;;161.60;74.78;;;;;;;-0.93;100.00;98752.00;2087898;28;20226;-79
2021/01/03 02:14:53;;;;;;;148.50;74.18;;;;;;;-0.93;100.00;98750.16;2095761;28;20248;-79
2021/01/03 02:15:58;;;;;;;149.90;74.53;;;;;;;-0.93;100.00;98747.56;2095868;28;20252;-78
2021/01/03 02:16:59;;;;;;;154.23;75.88;;;;;;;-0.97;100.00;98735.94;2095773;28;20675;-79
2021/01/03 02:18:02;;;;;;;148.40;71.33;;;;;;;-1.03;100.00;98736.06;2095807;28;20632;-78
2021/01/03 02:19:06;;;;;;;148.07;72.47;;;;;;;-1.06;100.00;98726.03;2087717;28;20673;-79
2021/01/03 02:20:09;;;;;;;141.02;70.00;;;;;;;-0.99;100.00;98737.97;2096112;28;20226;-78
2021/01/03 02:21:18;;;;;;;145.93;72.35;;;;;;;-0.98;100.00;98730.91;2095415;28;20230;-79
2021/01/03 02:22:25;;;;;;;142.52;71.00;;;;;;;-1.01;100.00;98732.19;2095911;28;20237;-78
2021/01/03 02:23:34;;;;;;;155.80;72.40;;;;;;;-1.08;100.00;98725.47;2103253;28;20275;-79
2021/01/03 02:24:42;;;;;;;143.27;70.00;;;;;;;-1.05;100.00;98735.47;2104110;28;20217;-78
2021/01/03 02:25:44;;;;;;;155.75;70.85;;;;;;;-1.06;100.00;98731.25;2104744;28;20224;-79
2021/01/03 02:26:49;;;;;;;144.68;68.55;;;;;;;-1.11;100.00;98734.59;2104131;28;20240;-79
2021/01/03 02:28:00;;;;;;;138.90;70.80;;;;;;;-1.15;100.00;98734.22;2096556;28;20279;-79
2021/01/03 02:29:03;;;;;;;147.80;72.88;;;;;;;-1.18;100.00;98739.94;2088523;28;20233;-79
2021/01/03 02:30:06;;;;;;;150.32;73.05;;;;;;;-1.18;100.00;98732.06;2095821;28;20222;-78
2021/01/03 02:31:09;;;;;;;140.82;68.75;;;;;;;-1.22;100.00;98740.59;2105161;28;20225;-78
2021/01/03 02:32:10;;;;;;;151.02;72.65;;;;;;;-1.30;100.00;98720.81;2104846;28;20228;-79
2021/01/03 02:33:16;;;;;;;141.50;70.28;;;;;;;-1.24;100.00;98730.34;2104362;28;20308;-78
2021/01/03 02:34:24;;;;;;;144.55;71.10;;;;;;;-1.31;100.00;98724.44;2096580;28;20229;-79
2021/01/03 02:35:25;;;;;;;143.20;68.05;;;;;;;-1.24;100.00;98734.78;2087886;28;20301;-79
2021/01/03 02:36:28;;;;;;;151.97;71.87;;;;;;;-1.28;100.00;98718.75;2096120;28;20238;-79
2021/01/03 02:37:35;;;;;;;143.38;69.18;;;;;;;-1.26;100.00;98727.19;2096506;28;20575;-80
2021/01/03 02:38:38;;;;;;;153.95;70.75;;;;;;;-1.38;100.00;98709.88;2097332;28;20226;-78
2021/01/03 02:39:42;;;;;;;151.68;71.22;;;;;;;-1.31;100.00;98719.19;2104392;28;20217;-78
2021/01/03 02:40:44;;;;;;;143.65;71.53;;;;;;;-1.33;100.00;98723.06;2103494;28;20294;-78
2021/01/03 02:41:45;;;;;;;152.80;71.90;;;;;;;-1.36;100.00;98719.09;2096019;28;20225;-79
2021/01/03 02:42:47;;;;;;;155.80;73.70;;;;;;;-1.34;100.00;98722.28;2104269;28;20225;-78
2021/01/03 02:43:47;;;;;;;166.25;72.70;;;;;;;-1.33;100.00;98728.31;2103648;28;20213;-78
2021/01/03 02:44:49;;;;;;;148.90;70.03;;;;;;;-1.38;100.00;98720.34;2104214;28;20221;-78
2021/01/03 02:45:50;;;;;;;161.02;74.32;;;;;;;-1.39;100.00;98719.56;2104194;28;20221;-79
2021/01/03 02:46:54;;;;;;;156.00;74.50;;;;;;;-1.46;100.00;98703.97;2095806;28;20765;-79
2021/01/03 02:47:58;;;;;;;148.95;74.18;;;;;;;-1.39;100.00;98721.34;2103894;28;20633;-78
2021/01/03 02:48:59;;;;;;;142.77;70.97;;;;;;;-1.54;100.00;98698.28;2105040;28;20225;-78
2021/01/03 02:50:00;;;;;;;147.77;72.43;;;;;;;-1.40;100.00;98717.16;2099843;28;20692;-77
2021/01/03 02:51:01;;;;;;;147.83;70.23;;;;;;;-1.42;100.00;98722.63;2095486;28;20552;-79
2021/01/03 02:52:02;;;;;;;147.80;74.00;;;;;;;-1.48;100.00;98713.88;2104207;28;20771;-78
2021/01/03 02:53:04;;;;;;;149.82;71.82;;;;;;;-1.51;100.00;98697.81;2105018;28;20217;-78
2021/01/03 02:54:07;;;;;;;139.05;68.30;;;;;;;-1.46;100.00;98714.44;2104036;28;20225;-77
2021/01/03 02:55:10;;;;;;;146.43;71.35;;;;;;;-1.47;100.00;98709.44;2103915;28;20245;-78
2021/01/03 02:56:11;;;;;;;147.63;73.40;;;;;;;-1.51;100.00;98703.03;2103958;28;20282;-78
2021/01/03 02:57:13;;;;;;;144.00;71.75;;;;;;;-1.42;100.00;98717.38;2104565;28;20311;-77
2021/01/03 02:58:14;;;;;;;148.70;71.43;;;;;;;-1.46;100.00;98696.13;2104967;28;20255;-78
2021/01/03 02:59:15;;;;;;;149.65;72.57;;;;;;;-1.37;100.00;98706.25;2103755;28;20290;-78
2021/01/03 03:00:22;;;;;;;151.55;75.53;;;;;;;-1.37;100.00;98707.03;2096517;28;20305;-78
2021/01/03 03:01:24;;;;;;;163.52;75.47;;;;;;;-1.33;100.00;98704.75;2095570;28;20226;-77
2021/01/03 03:02:24;;;;;;;158.98;76.35;;;;;;;-1.34;100.00;98711.81;2096896;28;20229;-77
2021/01/03 03:03:26;;;;;;;162.93;76.00;;;;;;;-1.40;100.00;98694.41;2095819;28;20300;-77
2021/01/03 03:04:27;;;;;;;156.45;74.05;;;;;;;-1.30;100.00;98707.72;2095730;28;20233;-77
2021/01/03 03:05:28;;;;;;;157.07;74.33;;;;;;;-1.31;100.00;98703.50;2096225;28;20305;-78
2021/01/03 03:06:29;;;;;;;150.32;73.35;;;;;;;-1.30;100.00;98710.34;2095783;28;20264;-78
2021/01/03 03:07:30;;;;;;;151.77;73.73;;;;;;;-1.35;100.00;98694.53;2096817;28;20683;-78
2021/01/03 03:08:31;;;;;;;162.50;73.85;;;;;;;-1.35;100.00;98698.97;2095513;28;20221;-78
2021/01/03 03:09:32;;;;;;;154.00;73.23;;;;;;;-1.38;100.00;98689.75;2094633;28;20222;-78
2021/01/03 03:10:33;;;;;;;159.05;73.72;;;;;;;-1.31;100.00;98698.25;2104732;28;20307;-78
2021/01/03 03:11:35;;;;;;;142.60;69.77;;;;;;;-1.38;100.00;98692.38;2104247;28;20217;-78
2021/01/03 03:12:36;;;;;;;146.68;72.00;;;;;;;-1.37;100.00;98693.97;2104481;28;20350;-78
2021/01/03 03:13:37;;;;;;;157.60;74.73;;;;;;;-1.28;100.00;98703.06;2112249;28;20325;-78
2021/01/03 03:14:38;;;;;;;165.48;76.03;;;;;;;-1.38;100.00;98681.91;2095255;28;20242;-78
2021/01/03 03:15:39;;;;;;;161.30;75.30;;;;;;;-1.33;100.00;98687.22;2096058;28;20234;-79
2021/01/03 03:16:40;;;;;;;172.15;75.72;;;;;;;-1.27;100.00;98699.41;2095743;28;20332;-79
2021/01/03 03:17:42;;;;;;;158.23;74.47;;;;;;;-1.24;100.00;98692.91;2086877;28;20230;-78
2021/01/03 03:18:43;;;;;;;147.52;71.30;;;;;;;-1.24;100.00;98688.47;2095960;28;20221;-78
2021/01/03 03:19:44;;;;;;;153.40;73.37;;;;;;;-1.26;100.00;98690.53;2095632;28;20218;-78
2021/01/03 03:20:46;;;;;;;153.32;73.65;;;;;;;-1.24;100.00;98685.88;2095983;28;20307;-78
2021/01/03 03:21:47;;;;;;;153.35;73.57;;;;;;;-1.18;100.00;98681.56;2095629;28;20738;-78
2021/01/03 03:22:48;;;;;;;150.50;71.30;;;;;;;-1.20;100.00;98679.16;2095840;28;20222;-78
2021/01/03 03:23:49;;;;;;;146.20;69.60;;;;;;;-1.17;100.00;98672.66;2097491;28;20222;-78
2021/01/03 03:24:50;;;;;;;149.07;70.87;;;;;;;-1.19;100.00;98675.53;2097314;28;20767;-79
2021/01/03 03:25:51;;;;;;;145.65;71.93;;;;;;;-1.27;100.00;98664.59;2098113;28;20217;-78
2021/01/03 03:26:54;;;;;;;143.17;70.80;;;;;;;-1.20;100.00;98681.00;2104652;28;20228;-78
2021/01/03 03:27:55;;;;;;;143.20;67.45;;;;;;;-1.21;100.00;98674.97;2097340;28;20221;-79
2021/01/03 03:28:56;;;;;;;148.13;72.63;;;;;;;-1.22;100.00;98672.53;2105777;28;20224;-78
2021/01/03 03:29:57;;;;;;;145.00;70.55;;;;;;;-1.20;100.00;98671.31;2101425;28;20579;-78
2021/01/03 03:30:58;;;;;;;156.43;73.13;;;;;;;-1.26;100.00;98664.38;2101255;28;20279;-77
2021/01/03 03:31:59;;;;;;;154.65;71.95;;;;;;;-1.17;100.00;98673.47;2105412;28;20291;-78
2021/01/03 03:33:00;;;;;;;153.30;71.17;;;;;;;-1.26;100.00;98653.91;2105588;28;20291;-78
2021/01/03 03:34:01;;;;;;;152.52;71.28;;;;;;;-1.15;100.00;98670.63;2105545;28;20232;-78
2021/01/03 03:35:03;;;;;;;158.90;72.67;;;;;;;-1.21;100.00;98658.47;2095893;28;20317;-78
2021/01/03 03:36:04;;;;;;;150.68;73.32;;;;;;;-1.10;100.00;98677.78;2096553;28;20230;-77
2021/01/03 03:37:06;;;;;;;147.93;70.40;;;;;;;-1.08;100.00;98673.13;2097401;28;20238;-78
2021/01/03 03:38:07;;;;;;;160.57;73.50;;;;;;;-1.10;100.00;98670.72;2097208;28;20225;-78
2021/01/03 03:39:08;;;;;;;157.05;73.45;;;;;;;-1.10;100.00;98662.88;2105449;28;20221;-78
2021/01/03 03:40:10;;;;;;;153.10;74.50;;;;;;;-1.03;100.00;98670.63;2105435;28;20229;-78
2021/01/03 03:41:17;;;;;;;154.90;75.70;;;;;;;-1.07;100.00;98661.63;2105353;28;20229;-78
2021/01/03 03:42:19;;;;;;;151.20;71.85;;;;;;;-1.02;100.00;98675.63;2105927;28;20228;-79
2021/01/03 03:43:20;;;;;;;160.35;74.60;;;;;;;-1.07;100.00;98653.75;2097132;28;20313;-78
2021/01/03 03:44:21;;;;;;;158.60;72.78;;;;;;;-1.03;100.00;98660.94;2105829;28;20213;-79
2021/01/03 03:45:22;;;;;;;154.88;73.13;;;;;;;-1.10;100.00;98646.38;2096711;28;20241;-78
2021/01/03 03:46:23;;;;;;;157.50;73.88;;;;;;;-1.00;100.00;98662.28;2088472;28;20735;-78
2021/01/03 03:47:27;;;;;;;163.10;76.60;;;;;;;-1.02;100.00;98653.88;2096315;28;20605;-78
2021/01/03 03:48:28;;;;;;;152.48;74.20;;;;;;;-0.99;100.00;98658.66;2097542;28;20218;-79
2021/01/03 03:49:29;;;;;;;170.53;75.40;;;;;;;-0.98;100.00;98653.16;2096881;28;20336;-79
2021/01/03 03:50:30;;;;;;;158.57;74.03;;;;;;;-0.99;100.00;98653.41;2088574;28;20226;-78
2021/01/03 03:51:31;;;;;;;153.43;73.67;;;;;;;-0.98;100.00;98655.00;2088783;28;20223;-78
2021/01/03 03:52:32;;;;;;;152.38;73.18;;;;;;;-1.00;100.00;98642.13;2097302;28;20268;-78
2021/01/03 03:53:33;;;;;;;164.73;74.03;;;;;;;-0.99;100.00;98637.69;2096982;28;20364;-78
2021/01/03 03:54:34;;;;;;;155.38;73.97;;;;;;;-0.99;100.00;98638.50;2088611;28;20218;-78
2021/01/03 03:55:35;;;;;;;159.40;76.77;;;;;;;-0.98;100.00;98624.38;2097257;28;20226;-78
2021/01/03 03:56:36;;;;;;;152.23;71.35;;;;;;;-1.05;100.00;98608.00;2097665;28;20761;-79
2021/01/03 03:57:38;;;;;;;150.90;74.57;;;;;;;-1.04;100.00;98599.13;2097569;28;20277;-77
2021/01/03 03:58:39;;;;;;;152.25;72.95;;;;;;;-0.90;100.00;98610.13;2102990;28;20270;-78
2021/01/03 03:59:40;;;;;;;153.67;73.73;;;;;;;-0.77;100.00;98606.47;2096275;28;20230;-78
2021/01/03 04:00:41;;;;;;;150.32;72.90;;;;;;;-0.80;100.00;98612.94;2097502;28;20669;-79
2021/01/03 04:01:42;;;;;;;163.10;77.87;;;;;;;-0.87;100.00;98597.38;2097445;28;20643;-78
2021/01/03 04:02:44;;;;;;;157.25;76.25;;;;;;;-0.80;100.00;98606.91;2098009;28;20217;-78
2021/01/03 04:03:45;;;;;;;167.60;79.82;;;;;;;-0.78;100.00;98607.47;2097516;28;20218;-78
2021/01/03 04:04:46;;;;;;;159.63;75.55;;;;;;;-0.90;100.00;98595.22;2097644;28;20229;-78
2021/01/03 04:05:48;;;;;;;157.83;76.03;;;;;;;-0.77;100.00;98604.63;2097398;28;20300;-79
2021/01/03 04:06:48;;;;;;;166.13;75.30;;;;;;;-0.75;100.00;98620.09;2096916;28;20572;-78
2021/01/03 04:07:50;;;;;;;155.20;73.53;;;;;;;-0.74;100.00;98625.09;2096823;28;20657;-78
2021/01/03 04:08:50;;;;;;;162.68;77.72;;;;;;;-0.76;100.00;98629.78;2096846;28;20456;-78
2021/01/03 04:09:52;;;;;;;156.43;74.23;;;;;;;-0.77;100.00;98638.69;2088630;28;20272;-79
2021/01/03 04:10:52;;;;;;;159.23;74.80;;;;;;;-0.77;100.00;98640.50;2105306;28;20730;-79
2021/01/03 04:11:54;;;;;;;156.43;73.10;;;;;;;-0.58;100.00;98660.25;2106069;28;20626;-78
2021/01/03 04:12:56;;;;;;;157.75;75.85;;;;;;;-0.51;100.00;98667.97;2105819;28;20467;-78
2021/01/03 04:13:57;;;;;;;164.15;74.60;;;;;;;-0.44;100.00;98671.22;2105224;28;21285;-78
2021/01/03 04:14:58;;;;;;;156.00;76.65;;;;;;;-0.51;100.00;98657.50;2096564;28;20229;-78
2021/01/03 04:15:59;;;;;;;156.20;75.33;;;;;;;-0.44;100.00;98660.75;2091669;28;20259;-78
2021/01/03 04:17:01;;;;;;;150.60;75.75;;;;;;;-0.47;100.00;98663.84;2096815;28;20230;-78
2021/01/03 04:18:03;;;;;;;161.63;75.93;;;;;;;-0.51;100.00;98652.25;2096979;28;20233;-79
2021/01/03 04:19:04;;;;;;;158.25;74.22;;;;;;;-0.59;100.00;98641.13;2096798;28;20226;-78
2021/01/03 04:20:06;;;;;;;157.03;74.33;;;;;;;-0.65;100.00;98633.38;2096739;28;20223;-78
2021/01/03 04:21:09;;;;;;;148.68;73.10;;;;;;;-0.58;100.00;98650.56;2104956;28;20225;-78
2021/01/03 04:22:10;;;;;;;156.00;73.70;;;;;;;-0.59;100.00;98648.19;2105164;28;20289;-78
2021/01/03 04:23:11;;;;;;;141.55;70.80;;;;;;;-0.67;100.00;98638.88;2096883;28;20233;-78
2021/01/03 04:24:12;;;;;;;150.67;71.70;;;;;;;-0.57;100.00;98646.91;2095384;28;20231;-77
2021/01/03 04:25:15;;;;;;;149.73;72.43;;;;;;;-0.57;100.00;98652.16;2098029;28;20570;-77
2021/01/03 04:26:17;;;;;;;152.18;68.78;;;;;;;-0.60;100.00;98630.88;2091695;28;20268;-77
2021/01/03 04:27:19;;;;;;;140.68;70.22;;;;;;;-0.55;100.00;98638.03;2096842;28;20237;-78
2021/01/03 04:28:21;;;;;;;160.50;71.15;;;;;;;-0.61;100.00;98630.09;2096732;28;20638;-78
2021/01/03 04:29:23;;;;;;;161.43;72.30;;;;;;;-0.58;100.00;98628.81;2094874;28;20222;-78
2021/01/03 04:30:25;;;;;;;151.63;70.93;;;;;;;-0.58;100.00;98626.97;2105168;28;20695;-78
2021/01/03 04:31:26;;;;;;;141.77;70.75;;;;;;;-0.60;100.00;98626.44;2106144;28;20274;-77
2021/01/03 04:32:27;;;;;;;141.07;68.83;;;;;;;-0.59;100.00;98628.03;2106065;28;20282;-78
2021/01/03 04:33:28;;;;;;;148.32;71.93;;;;;;;-0.61;100.00;98624.03;2105757;28;20228;-79
2021/01/03 04:34:29;;;;;;;140.83;68.43;;;;;;;-0.61;100.00;98622.22;2106472;28;20221;-78
2021/01/03 04:35:30;;;;;;;139.98;68.57;;;;;;;-0.63;100.00;98629.50;2105007;28;20229;-78
2021/01/03 04:36:31;;;;;;;143.57;69.00;;;;;;;-0.66;100.00;98621.31;2105037;28;20295;-78
2021/01/03 04:37:32;;;;;;;140.73;67.82;;;;;;;-0.78;100.00;98610.91;2103551;28;20239;-78
2021/01/03 04:38:33;;;;;;;150.43;74.80;;;;;;;-0.80;100.00;98612.94;2105076;28;20221;-78